createdAt,value
2022-08-17T00:00:01.041Z,19.42
2022-08-17T00:02:27.786Z,20.23
2022-08-17T00:04:55.489Z,20.55
2022-08-17T00:07:23.017Z,20.85
2022-08-17T00:09:49.792Z,20.98
2022-08-17T00:12:43.445Z,21.45
2022-08-17T00:15:04.832Z,20.02
2022-08-17T00:17:31.549Z,18.58
2022-08-17T00:19:58.314Z,19.02
2022-08-17T00:22:31.396Z,18.58
2022-08-17T00:25:07.458Z,18.67
2022-08-17T00:27:34.650Z,19.50
2022-08-17T00:30:01.562Z,18.42
2022-08-17T00:33:13.640Z,18.30
2022-08-17T00:35:17.652Z,18.77
2022-08-17T00:37:44.659Z,17.77
2022-08-17T00:40:14.522Z,17.95
2022-08-17T00:42:42.558Z,17.95
2022-08-17T00:45:12.852Z,17.02
2022-08-17T00:47:40.112Z,16.70
2022-08-17T00:50:11.271Z,17.17
2022-08-17T00:52:47.397Z,16.77
2022-08-17T00:55:14.893Z,16.95
2022-08-17T00:57:51.249Z,16.83
2022-08-17T01:00:26.718Z,16.50
2022-08-17T01:03:00.173Z,16.13
2022-08-17T01:05:30.778Z,15.73
2022-08-17T01:08:00.035Z,16.60
2022-08-17T01:11:00.380Z,16.05
2022-08-17T01:13:41.184Z,15.65
2022-08-17T01:16:26.151Z,15.43
2022-08-17T01:19:00.193Z,15.57
2022-08-17T01:21:30.383Z,14.90
2022-08-17T01:23:57.237Z,15.82
2022-08-17T01:26:24.422Z,15.05
2022-08-17T01:28:55.423Z,15.88
2022-08-17T01:31:24.647Z,15.00
2022-08-17T01:36:18.189Z,16.10
2022-08-17T01:38:44.888Z,16.08
2022-08-17T01:41:15.510Z,14.68
2022-08-17T01:43:50.919Z,15.95
2022-08-17T01:46:23.379Z,15.07
2022-08-17T01:48:51.141Z,15.23
2022-08-17T01:51:18.439Z,16.60
2022-08-17T01:53:49.505Z,17.15
2022-08-17T01:56:19.780Z,16.85
2022-08-17T01:58:46.720Z,16.25
2022-08-17T02:01:20.336Z,16.05
2022-08-17T02:03:53.438Z,16.20
2022-08-17T02:06:28.878Z,15.93
2022-08-17T02:09:02.291Z,16.02
2022-08-17T02:11:33.119Z,16.67
2022-08-17T02:14:02.476Z,16.85
2022-08-17T02:16:37.182Z,18.02
2022-08-17T02:19:07.871Z,17.40
2022-08-17T02:21:35.980Z,17.48
2022-08-17T02:24:04.164Z,16.90
2022-08-17T02:26:30.920Z,17.90
2022-08-17T02:28:57.663Z,17.73
2022-08-17T02:31:24.805Z,17.92
2022-08-17T02:34:00.411Z,17.63
2022-08-17T02:36:33.722Z,19.00
2022-08-17T02:39:02.785Z,18.92
2022-08-17T02:41:30.395Z,18.08
2022-08-17T02:43:57.533Z,17.67
2022-08-17T02:46:24.663Z,17.77
2022-08-17T02:48:51.843Z,17.45
2022-08-17T02:51:18.606Z,17.65
2022-08-17T02:53:46.660Z,17.48
2022-08-17T02:56:13.570Z,18.38
2022-08-17T02:58:40.708Z,17.98
2022-08-17T03:01:09.824Z,16.90
2022-08-17T03:03:37.648Z,16.58
2022-08-17T03:06:04.962Z,16.25
2022-08-17T03:08:31.851Z,14.80
2022-08-17T03:10:58.937Z,14.75
2022-08-17T03:13:27.152Z,14.30
2022-08-17T03:15:53.932Z,14.73
2022-08-17T03:18:24.448Z,13.95
2022-08-17T03:20:55.530Z,12.38
2022-08-17T03:23:23.985Z,12.13
2022-08-17T03:25:53.830Z,12.60
2022-08-17T03:28:22.122Z,11.60
2022-08-17T03:30:49.508Z,11.05
2022-08-17T03:33:16.820Z,11.77
2022-08-17T03:35:43.940Z,11.55
2022-08-17T03:38:12.492Z,11.88
2022-08-17T03:40:57.031Z,12.55
2022-08-17T03:43:30.554Z,12.00
2022-08-17T03:46:28.340Z,11.57
2022-08-17T03:49:19.547Z,11.27
2022-08-17T03:52:05.450Z,12.20
2022-08-17T03:54:50.790Z,11.50
2022-08-17T03:57:18.403Z,10.50
2022-08-17T03:59:45.349Z,11.15
2022-08-17T04:02:31.233Z,11.63
2022-08-17T04:04:58.962Z,11.13
2022-08-17T04:07:29.279Z,10.73
2022-08-17T04:09:57.771Z,9.82
2022-08-17T04:12:25.260Z,9.90
2022-08-17T04:14:54.606Z,9.77
2022-08-17T04:17:27.634Z,10.90
2022-08-17T04:19:55.334Z,11.00
2022-08-17T04:22:30.626Z,11.20
2022-08-17T04:25:02.481Z,11.40
2022-08-17T04:29:56.381Z,11.45
2022-08-17T04:32:58.333Z,11.77
2022-08-17T04:35:10.174Z,11.95
2022-08-17T04:37:36.936Z,13.23
2022-08-17T04:40:23.163Z,15.75
2022-08-17T04:43:12.700Z,12.98
2022-08-17T04:45:44.161Z,12.93
2022-08-17T04:48:23.132Z,14.13
2022-08-17T04:50:54.850Z,16.10
2022-08-17T04:53:22.020Z,16.55
2022-08-17T04:55:49.285Z,17.05
2022-08-17T04:58:16.003Z,16.75
2022-08-17T05:00:42.692Z,15.27
2022-08-17T05:03:09.781Z,16.00
2022-08-17T05:05:39.149Z,15.60
2022-08-17T05:08:06.971Z,13.73
2022-08-17T05:10:36.945Z,14.80
2022-08-17T05:13:09.416Z,13.25
2022-08-17T05:15:38.972Z,12.95
2022-08-17T05:18:12.749Z,12.30
2022-08-17T05:20:40.710Z,13.05
2022-08-17T05:23:11.635Z,11.38
2022-08-17T05:25:41.026Z,11.90
2022-08-17T05:28:09.090Z,12.07
2022-08-17T05:30:37.078Z,11.70
2022-08-17T05:33:10.673Z,11.05
2022-08-17T05:35:39.575Z,10.43
2022-08-17T05:38:07.973Z,10.07
2022-08-17T05:40:35.595Z,9.55
2022-08-17T05:43:11.603Z,8.23
2022-08-17T05:46:15.589Z,6.72
2022-08-17T05:48:51.496Z,6.53
2022-08-17T05:51:55.595Z,6.18
2022-08-17T05:54:52.512Z,6.15
2022-08-17T05:57:43.559Z,5.93
2022-08-17T06:00:30.353Z,6.20
2022-08-17T06:03:23.038Z,5.35
2022-08-17T06:06:16.895Z,6.35
2022-08-17T06:08:55.792Z,5.53
2022-08-17T06:12:00.785Z,5.35
2022-08-17T06:14:58.774Z,5.75
2022-08-17T06:17:27.353Z,5.47
2022-08-17T06:20:00.214Z,5.68
2022-08-17T06:22:33.248Z,6.30
2022-08-17T06:25:27.966Z,6.25
2022-08-17T06:28:08.353Z,6.95
2022-08-17T06:30:59.583Z,6.53
2022-08-17T06:33:35.079Z,7.50
2022-08-17T06:36:14.609Z,6.72
2022-08-17T06:39:08.594Z,8.15
2022-08-17T06:43:04.982Z,8.00
2022-08-17T06:45:13.633Z,7.70
2022-08-17T06:47:49.297Z,8.15
2022-08-17T06:50:35.873Z,8.68
2022-08-17T06:53:38.197Z,8.52
2022-08-17T06:56:10.530Z,8.75
2022-08-17T06:58:40.396Z,8.60
2022-08-17T07:01:14.848Z,9.88
2022-08-17T07:03:59.010Z,9.20
2022-08-17T07:06:47.516Z,10.15
2022-08-17T07:09:36.005Z,8.75
2022-08-17T07:12:16.207Z,8.75
2022-08-17T07:15:22.800Z,9.00
2022-08-17T07:17:49.976Z,9.02
2022-08-17T07:20:23.030Z,9.60
2022-08-17T07:23:04.988Z,9.25
2022-08-17T07:25:32.968Z,9.10
2022-08-17T07:28:06.024Z,10.45
2022-08-17T07:30:45.754Z,8.68
2022-08-17T07:33:30.885Z,9.45
2022-08-17T07:35:58.285Z,9.73
2022-08-17T07:38:28.308Z,8.77
2022-08-17T07:40:58.226Z,8.90
2022-08-17T07:43:29.612Z,9.93
2022-08-17T07:46:35.050Z,9.55
2022-08-17T07:49:07.358Z,9.05
2022-08-17T07:51:39.621Z,8.70
2022-08-17T07:54:15.570Z,9.32
2022-08-17T07:56:47.068Z,9.15
2022-08-17T07:59:23.701Z,10.95
2022-08-17T08:01:57.599Z,9.60
2022-08-17T08:04:59.633Z,10.35
2022-08-17T08:07:34.554Z,10.38
2022-08-17T08:10:13.711Z,10.13
2022-08-17T08:13:01.027Z,10.48
2022-08-17T08:18:05.037Z,10.93
2022-08-17T08:20:56.468Z,8.82
2022-08-17T08:23:37.221Z,10.13
2022-08-17T08:26:28.341Z,9.77
2022-08-17T08:29:14.175Z,8.90
2022-08-17T08:32:10.954Z,9.13
2022-08-17T08:35:02.046Z,9.23
2022-08-17T08:38:00.754Z,8.02
2022-08-17T08:40:33.472Z,9.00
2022-08-17T08:43:18.910Z,8.00
2022-08-17T08:45:57.744Z,8.38
2022-08-17T08:50:01.317Z,7.70
2022-08-17T08:52:34.901Z,6.90
2022-08-17T08:55:23.421Z,7.15
2022-08-17T08:58:00.660Z,7.00
2022-08-17T09:00:29.248Z,6.85
2022-08-17T09:03:31.741Z,6.82
2022-08-17T09:06:49.569Z,6.90
2022-08-17T09:09:22.210Z,6.60
2022-08-17T09:12:07.739Z,6.78
2022-08-17T09:15:16.754Z,6.78
2022-08-17T09:18:03.531Z,6.28
2022-08-17T09:20:57.176Z,6.35
2022-08-17T09:23:45.095Z,6.93
2022-08-17T09:26:27.974Z,6.40
2022-08-17T09:29:01.381Z,7.18
2022-08-17T09:31:46.410Z,6.35
2022-08-17T09:34:21.961Z,8.38
2022-08-17T09:37:28.105Z,8.00
2022-08-17T09:40:06.869Z,9.60
2022-08-17T09:42:47.410Z,8.32
2022-08-17T09:45:32.068Z,8.63
2022-08-17T09:48:14.273Z,8.60
2022-08-17T09:51:05.942Z,8.40
2022-08-17T09:53:36.190Z,7.93
2022-08-17T09:56:03.338Z,8.90
2022-08-17T09:58:37.457Z,7.35
2022-08-17T10:01:21.016Z,7.88
2022-08-17T10:04:29.543Z,7.88
2022-08-17T10:07:06.242Z,7.20
2022-08-17T10:09:59.913Z,7.30
2022-08-17T10:12:47.179Z,8.23
2022-08-17T10:18:03.803Z,7.63
2022-08-17T10:20:45.211Z,8.00
2022-08-17T10:23:40.536Z,8.02
2022-08-17T10:26:18.659Z,6.82
2022-08-17T10:29:05.033Z,6.15
2022-08-17T10:31:46.179Z,7.13
2022-08-17T10:37:21.217Z,6.68
2022-08-17T10:40:10.916Z,7.32
2022-08-17T10:42:51.334Z,7.55
2022-08-17T10:45:37.702Z,8.55
2022-08-17T10:48:07.686Z,9.00
2022-08-17T10:50:49.448Z,8.77
2022-08-17T10:53:31.476Z,9.40
2022-08-17T10:56:13.627Z,9.60
2022-08-17T10:58:50.841Z,9.30
2022-08-17T11:01:18.222Z,10.77
2022-08-17T11:03:55.365Z,10.75
2022-08-17T11:06:32.059Z,9.43
2022-08-17T11:09:27.496Z,10.48
2022-08-17T11:12:22.065Z,10.63
2022-08-17T11:15:17.968Z,11.20
2022-08-17T11:18:05.918Z,12.93
2022-08-17T11:20:51.877Z,14.25
2022-08-17T11:23:45.377Z,14.57
2022-08-17T11:28:59.946Z,12.80
2022-08-17T11:31:37.912Z,14.68
2022-08-17T11:34:08.483Z,13.27
2022-08-17T11:36:48.455Z,12.88
2022-08-17T11:39:29.985Z,13.70
2022-08-17T11:42:25.487Z,13.65
2022-08-17T11:45:03.176Z,14.05
2022-08-17T11:48:26.591Z,13.98
2022-08-17T11:51:24.667Z,14.50
2022-08-17T11:54:03.588Z,15.00
2022-08-17T11:56:41.466Z,15.95
2022-08-17T11:59:30.594Z,17.00
2022-08-17T12:01:57.547Z,15.88
2022-08-17T12:04:28.962Z,16.08
2022-08-17T12:07:06.284Z,16.05
2022-08-17T12:09:39.161Z,16.83
2022-08-17T12:12:24.977Z,15.98
2022-08-17T12:15:12.666Z,16.48
2022-08-17T12:17:42.668Z,15.73
2022-08-17T12:20:31.931Z,17.05
2022-08-17T12:23:04.358Z,17.45
2022-08-17T12:25:47.529Z,19.02
2022-08-17T12:28:29.062Z,17.88
2022-08-17T12:31:05.999Z,17.70
2022-08-17T12:33:35.792Z,17.80
2022-08-17T12:36:06.256Z,17.48
2022-08-17T12:38:35.988Z,17.75
2022-08-17T12:41:24.952Z,16.83
2022-08-17T12:44:12.216Z,18.00
2022-08-17T12:49:36.163Z,15.88
2022-08-17T12:52:07.969Z,17.70
2022-08-17T12:54:35.092Z,18.88
2022-08-17T12:57:08.933Z,16.58
2022-08-17T12:59:41.988Z,18.17
2022-08-17T13:02:23.680Z,19.13
2022-08-17T13:04:50.875Z,18.13
2022-08-17T13:07:42.386Z,19.70
2022-08-17T13:10:18.351Z,20.58
2022-08-17T13:12:45.167Z,19.70
2022-08-17T13:15:45.921Z,19.98
2022-08-17T13:18:54.579Z,21.10
2022-08-17T13:21:27.637Z,19.30
2022-08-17T13:24:17.181Z,19.88
2022-08-17T13:26:51.131Z,20.15
2022-08-17T13:29:19.292Z,20.77
2022-08-17T13:31:52.880Z,21.70
2022-08-17T13:34:29.427Z,20.13
2022-08-17T13:37:28.834Z,22.27
2022-08-17T13:40:00.019Z,23.15
2022-08-17T13:42:51.486Z,21.48
2022-08-17T13:45:35.878Z,18.75
2022-08-17T13:48:08.341Z,18.92
2022-08-17T13:50:46.107Z,18.08
2022-08-17T13:53:16.642Z,18.40
2022-08-17T13:56:00.678Z,20.13
2022-08-17T13:58:32.886Z,18.88
2022-08-17T14:01:35.848Z,19.52
2022-08-17T14:04:07.908Z,19.42
2022-08-17T14:06:53.427Z,18.08
2022-08-17T14:09:24.533Z,17.52
2022-08-17T14:11:53.939Z,18.92
2022-08-17T14:14:23.023Z,18.15
2022-08-17T14:16:50.817Z,18.30
2022-08-17T14:19:17.928Z,18.42
2022-08-17T14:21:46.365Z,19.15
2022-08-17T14:24:35.123Z,18.02
2022-08-17T14:27:03.535Z,17.85
2022-08-17T14:29:32.248Z,17.95
2022-08-17T14:32:04.247Z,18.55
2022-08-17T14:34:31.467Z,16.80
2022-08-17T14:36:58.509Z,18.38
2022-08-17T14:39:25.721Z,17.10
2022-08-17T14:41:52.962Z,18.35
2022-08-17T14:44:19.713Z,18.45
2022-08-17T14:46:47.896Z,18.20
2022-08-17T14:49:15.623Z,17.65
2022-08-17T14:51:44.200Z,16.65
2022-08-17T14:54:33.052Z,18.13
2022-08-17T14:57:22.374Z,16.85
2022-08-17T15:02:19.141Z,16.30
2022-08-17T15:04:47.621Z,15.75
2022-08-17T15:07:15.464Z,17.20
2022-08-17T15:09:42.372Z,16.25
2022-08-17T15:12:17.808Z,15.88
2022-08-17T15:14:45.517Z,16.25
2022-08-17T15:17:12.281Z,15.48
2022-08-17T15:19:38.997Z,16.88
2022-08-17T15:22:06.734Z,15.52
2022-08-17T15:24:33.887Z,16.42
2022-08-17T15:27:00.591Z,17.27
2022-08-17T15:29:27.260Z,15.20
2022-08-17T15:31:57.428Z,13.85
2022-08-17T15:34:27.237Z,13.80
2022-08-17T15:36:53.967Z,15.73
2022-08-17T15:39:22.004Z,14.15
2022-08-17T15:41:58.056Z,15.52
2022-08-17T15:44:32.514Z,14.65
2022-08-17T15:47:02.169Z,16.80
2022-08-17T15:49:29.572Z,14.45
2022-08-17T15:51:56.315Z,13.50
2022-08-17T15:54:23.604Z,14.80
2022-08-17T15:56:50.596Z,13.65
2022-08-17T15:59:17.343Z,13.13
2022-08-17T16:03:04.677Z,15.02
2022-08-17T16:04:31.780Z,13.20
2022-08-17T16:06:59.711Z,13.38
2022-08-17T16:09:26.630Z,13.40
2022-08-17T16:11:55.628Z,11.68
2022-08-17T16:14:24.101Z,13.18
2022-08-17T16:16:51.101Z,12.32
2022-08-17T16:19:18.248Z,11.85
2022-08-17T16:21:44.982Z,12.52
2022-08-17T16:24:13.104Z,12.48
2022-08-17T16:26:40.888Z,12.57
2022-08-17T16:29:08.791Z,13.05
2022-08-17T16:31:37.521Z,14.15
2022-08-17T16:34:17.899Z,14.55
2022-08-17T16:36:54.885Z,13.52
2022-08-17T16:39:24.050Z,14.20
2022-08-17T16:41:50.746Z,14.02
2022-08-17T16:44:21.699Z,14.95
2022-08-17T16:46:49.321Z,15.30
2022-08-17T16:49:35.426Z,15.70
2022-08-17T16:52:05.409Z,15.88
2022-08-17T16:54:33.385Z,15.77
2022-08-17T16:57:00.177Z,15.50
2022-08-17T16:59:30.342Z,16.02
2022-08-17T17:02:11.060Z,16.13
2022-08-17T17:04:45.746Z,16.80
2022-08-17T17:07:25.611Z,18.10
2022-08-17T17:09:55.375Z,18.30
2022-08-17T17:13:00.830Z,17.25
2022-08-17T17:15:10.800Z,18.45
2022-08-17T17:17:39.817Z,16.10
2022-08-17T17:22:58.650Z,16.75
2022-08-17T17:25:37.696Z,18.13
2022-08-17T17:28:24.847Z,18.02
2022-08-17T17:31:11.802Z,17.38
2022-08-17T17:33:43.451Z,17.95
2022-08-17T17:36:27.090Z,18.65
2022-08-17T17:39:00.031Z,18.17
2022-08-17T17:41:32.865Z,17.15
2022-08-17T17:44:07.454Z,17.65
2022-08-17T17:46:38.342Z,18.08
2022-08-17T17:49:06.109Z,17.20
2022-08-17T17:52:10.017Z,18.50
2022-08-17T17:54:55.712Z,17.08
2022-08-17T17:57:33.501Z,19.17
2022-08-17T18:00:25.607Z,17.58
2022-08-17T18:03:08.499Z,18.17
2022-08-17T18:05:57.390Z,17.35
2022-08-17T18:08:54.652Z,18.98
2022-08-17T18:11:25.025Z,19.15
2022-08-17T18:14:17.269Z,18.38
2022-08-17T18:16:46.364Z,20.17
2022-08-17T18:19:21.449Z,19.88
2022-08-17T18:24:42.681Z,20.40
2022-08-17T18:27:23.129Z,21.02
2022-08-17T18:29:52.854Z,20.15
2022-08-17T18:32:41.323Z,19.05
2022-08-17T18:35:14.212Z,21.38
2022-08-17T18:37:45.278Z,21.95
2022-08-17T18:40:18.329Z,21.17
2022-08-17T18:43:00.435Z,20.35
2022-08-17T18:45:48.067Z,19.77
2022-08-17T18:48:48.624Z,19.08
2022-08-17T18:51:43.331Z,20.08
2022-08-17T18:54:23.590Z,20.30
2022-08-17T18:56:56.195Z,20.05
2022-08-17T18:59:26.935Z,20.55
2022-08-17T19:01:59.203Z,21.33
2022-08-17T19:04:37.624Z,19.23
2022-08-17T19:07:24.357Z,19.80
2022-08-17T19:10:06.612Z,20.02
2022-08-17T19:12:40.624Z,19.92
2022-08-17T19:15:10.333Z,18.02
2022-08-17T19:18:06.710Z,18.83
2022-08-17T19:20:38.219Z,21.05
2022-08-17T19:23:29.020Z,18.75
2022-08-17T19:25:59.171Z,19.48
2022-08-17T19:28:48.908Z,20.33
2022-08-17T19:31:22.865Z,19.75
2022-08-17T19:33:50.401Z,21.45
2022-08-17T19:36:21.372Z,20.33
2022-08-17T19:39:14.278Z,19.33
2022-08-17T19:41:47.344Z,19.10
2022-08-17T19:44:39.020Z,19.00
2022-08-17T19:47:30.496Z,17.70
2022-08-17T19:50:16.134Z,18.52
2022-08-17T19:53:07.199Z,18.33
2022-08-17T19:55:56.137Z,17.83
2022-08-17T19:58:46.829Z,19.00
2022-08-17T20:01:20.559Z,19.67
2022-08-17T20:04:10.117Z,18.20
2022-08-17T20:06:40.015Z,20.10
2022-08-17T20:09:33.813Z,21.08
2022-08-17T20:12:18.087Z,18.80
2022-08-17T20:14:53.488Z,19.27
2022-08-17T20:17:24.899Z,18.05
2022-08-17T20:20:19.426Z,17.40
2022-08-17T20:23:11.327Z,17.88
2022-08-17T20:25:42.412Z,18.67
2022-08-17T20:28:23.788Z,18.70
2022-08-17T20:36:19.285Z,18.05
2022-08-17T20:38:56.567Z,17.80
2022-08-17T20:41:28.672Z,18.95
2022-08-17T20:43:55.770Z,16.45
2022-08-17T20:46:40.433Z,16.75
2022-08-17T20:49:31.133Z,18.33
2022-08-17T20:52:35.924Z,16.70
2022-08-17T20:55:04.330Z,17.10
2022-08-17T20:57:31.346Z,16.15
2022-08-17T21:00:16.411Z,17.15
2022-08-17T21:02:49.172Z,16.40
2022-08-17T21:05:34.744Z,15.68
2022-08-17T21:08:15.805Z,15.93
2022-08-17T21:10:45.396Z,15.88
2022-08-17T21:13:15.726Z,15.27
2022-08-17T21:15:49.753Z,14.40
2022-08-17T21:18:54.843Z,14.23
2022-08-17T21:21:39.392Z,14.07
2022-08-17T21:24:25.122Z,13.43
2022-08-17T21:27:09.918Z,13.63
2022-08-17T21:30:11.913Z,13.88
2022-08-17T21:32:42.023Z,12.68
2022-08-17T21:35:34.581Z,14.23
2022-08-17T21:38:13.791Z,12.57
2022-08-17T21:40:45.085Z,13.63
2022-08-17T21:43:32.335Z,13.50
2022-08-17T21:46:10.535Z,12.43
2022-08-17T21:48:42.934Z,12.43
2022-08-17T21:51:20.646Z,12.48
2022-08-17T21:54:11.601Z,12.25
2022-08-17T21:56:44.934Z,11.40
2022-08-17T21:59:32.834Z,11.50
2022-08-17T22:02:06.229Z,11.15
2022-08-17T22:04:36.262Z,11.05
2022-08-17T22:07:06.918Z,11.68
2022-08-17T22:09:48.860Z,11.38
2022-08-17T22:12:25.514Z,10.43
2022-08-17T22:15:05.874Z,10.77
2022-08-17T22:17:35.884Z,10.43
2022-08-17T22:20:17.390Z,10.55
2022-08-17T22:23:08.789Z,10.05
2022-08-17T22:25:39.528Z,10.90
2022-08-17T22:28:09.034Z,11.23
2022-08-17T22:30:40.228Z,10.98
2022-08-17T22:33:37.047Z,10.57
2022-08-17T22:36:25.164Z,9.85
2022-08-17T22:39:01.175Z,9.57
2022-08-17T22:41:47.006Z,10.05
2022-08-17T22:44:14.087Z,9.73
2022-08-17T22:47:02.746Z,10.18
2022-08-17T22:49:56.354Z,9.57
2022-08-17T22:55:34.862Z,10.20
2022-08-17T22:58:27.753Z,14.85
2022-08-17T23:00:54.973Z,10.23
2022-08-17T23:03:25.939Z,9.63
2022-08-17T23:06:06.416Z,9.93
2022-08-17T23:08:35.665Z,10.55
2022-08-17T23:11:03.003Z,10.57
2022-08-17T23:13:33.255Z,10.98
2022-08-17T23:16:00.421Z,10.40
2022-08-17T23:18:27.301Z,10.77
2022-08-17T23:20:54.361Z,10.65
2022-08-17T23:23:23.898Z,10.52
2022-08-17T23:25:50.764Z,10.85
2022-08-17T23:28:18.045Z,9.57
2022-08-17T23:30:48.344Z,10.52
2022-08-17T23:33:30.182Z,11.75
2022-08-17T23:35:58.744Z,10.90
2022-08-17T23:38:27.074Z,11.35
2022-08-17T23:40:54.519Z,10.85
2022-08-17T23:43:25.393Z,12.02
2022-08-17T23:45:55.255Z,11.48
2022-08-17T23:48:36.290Z,11.27
2022-08-17T23:51:10.166Z,11.57
2022-08-17T23:53:38.978Z,11.77
2022-08-17T23:56:10.317Z,11.75
2022-08-17T23:58:40.185Z,11.95
